Terminal Aerodrome Forecast
Issued by NWS Omaha/Valley, NE

Home | Current Version | Previous Version | Text Only | Print | Product List | Glossary Off
Versions: 1 2 3 4 5 6 7 8 9 10 11 12 13 14 15 16 17 18 19 20 21

000
FTUS43 KOAX 250013 AAA
TAFOFK
TAF AMD
KOFK 250013Z 2500/2524 34011KT 6SM -SHRA OVC025
      TEMPO 2500/2504 4SM SHRA OVC008
     FM250400 35007KT P6SM -SHRA OVC012
      TEMPO 2506/2510 4SM SHRA OVC007
     FM251500 35009KT 5SM -SHRA OVC008=

USA.gov is the U.S. government's official web portal to all federal, state and local government web resources and services.